createdAt,value
2022-10-20T00:04:21.087Z,5.63
2022-10-20T00:06:47.662Z,5.60
2022-10-20T00:09:14.316Z,5.58
2022-10-20T00:11:40.925Z,5.55
2022-10-20T00:14:07.489Z,5.62
2022-10-20T00:16:36.653Z,5.52
2022-10-20T00:19:04.036Z,5.54
2022-10-20T00:21:31.973Z,5.61
2022-10-20T00:24:01.782Z,5.58
2022-10-20T00:26:29.974Z,5.65
2022-10-20T00:28:56.567Z,5.54
2022-10-20T00:31:24.060Z,5.38
2022-10-20T00:33:50.898Z,5.46
2022-10-20T00:36:19.058Z,5.50
2022-10-20T00:38:45.898Z,5.61
2022-10-20T00:41:14.343Z,5.36
2022-10-20T00:43:51.075Z,5.44
2022-10-20T00:46:25.774Z,5.47
2022-10-20T00:48:59.421Z,5.47
2022-10-20T00:51:28.407Z,5.38
2022-10-20T00:54:00.357Z,5.50
2022-10-20T00:56:26.991Z,5.61
2022-10-20T00:58:53.524Z,5.46
2022-10-20T01:01:20.184Z,5.64
2022-10-20T01:03:49.662Z,5.57
2022-10-20T01:06:18.928Z,5.54
2022-10-20T01:08:45.711Z,5.40
2022-10-20T01:11:45.255Z,5.44
2022-10-20T01:14:43.024Z,5.50
2022-10-20T01:17:34.777Z,5.43
2022-10-20T01:20:20.087Z,5.46
2022-10-20T01:23:07.194Z,5.67
2022-10-20T01:25:42.213Z,5.84
2022-10-20T01:28:24.099Z,5.68
2022-10-20T01:30:56.931Z,5.63
2022-10-20T01:33:35.061Z,5.55
2022-10-20T01:36:05.385Z,5.64
2022-10-20T01:38:47.084Z,5.70
2022-10-20T01:41:22.354Z,5.55
2022-10-20T01:43:49.898Z,5.45
2022-10-20T01:46:18.023Z,5.58
2022-10-20T01:48:45.112Z,5.68
2022-10-20T01:51:11.671Z,5.65
2022-10-20T01:53:38.393Z,5.52
2022-10-20T01:56:05.808Z,5.72
2022-10-20T01:58:42.983Z,5.66
2022-10-20T02:01:21.196Z,5.81
2022-10-20T02:03:59.675Z,5.57
2022-10-20T02:06:54.434Z,5.52
2022-10-20T02:09:35.014Z,5.55
2022-10-20T02:12:04.106Z,5.45
2022-10-20T02:14:33.438Z,5.45
2022-10-20T02:17:04.559Z,5.39
2022-10-20T02:19:38.694Z,5.45
2022-10-20T02:22:07.247Z,5.48
2022-10-20T02:24:36.657Z,5.56
2022-10-20T02:27:08.206Z,5.40
2022-10-20T02:29:42.603Z,5.43
2022-10-20T02:32:10.620Z,5.49
2022-10-20T02:34:40.958Z,5.47
2022-10-20T02:37:09.283Z,5.36
2022-10-20T02:39:35.867Z,5.31
2022-10-20T02:42:02.447Z,5.39
2022-10-20T02:44:29.028Z,5.43
2022-10-20T02:46:55.579Z,5.46
2022-10-20T02:49:22.178Z,5.44
2022-10-20T02:51:48.819Z,5.34
2022-10-20T02:54:15.362Z,5.27
2022-10-20T02:56:42.063Z,5.24
2022-10-20T02:59:13.840Z,5.16
2022-10-20T03:01:41.453Z,5.14
2022-10-20T03:04:08.079Z,5.18
2022-10-20T03:06:34.672Z,5.17
2022-10-20T03:09:01.275Z,5.15
2022-10-20T03:11:27.836Z,5.09
2022-10-20T03:13:54.420Z,5.05
2022-10-20T03:16:21.267Z,5.08
2022-10-20T03:18:47.922Z,4.90
2022-10-20T03:21:14.522Z,4.95
2022-10-20T03:23:41.149Z,5.08
2022-10-20T03:26:10.692Z,5.11
2022-10-20T03:28:38.747Z,5.03
2022-10-20T03:31:05.644Z,5.11
2022-10-20T03:33:32.223Z,5.09
2022-10-20T03:35:58.771Z,5.11
2022-10-20T03:38:25.416Z,5.10
2022-10-20T03:40:52.110Z,5.29
2022-10-20T03:43:18.825Z,5.17
2022-10-20T03:45:45.418Z,5.23
2022-10-20T03:48:12.710Z,5.23
2022-10-20T03:50:40.710Z,5.36
2022-10-20T03:53:08.067Z,5.30
2022-10-20T03:55:34.645Z,5.30
2022-10-20T03:58:01.207Z,5.27
2022-10-20T04:00:28.015Z,5.18
2022-10-20T04:02:54.742Z,5.32
2022-10-20T04:05:21.617Z,5.28
2022-10-20T04:07:48.787Z,5.46
2022-10-20T04:10:16.769Z,5.40
2022-10-20T04:12:43.425Z,5.37
2022-10-20T04:15:11.441Z,5.39
2022-10-20T04:20:06.877Z,5.42
2022-10-20T04:22:33.761Z,5.47
2022-10-20T04:25:00.567Z,5.51
2022-10-20T04:27:28.230Z,5.50
2022-10-20T04:29:54.817Z,5.47
2022-10-20T04:32:21.366Z,5.34
2022-10-20T04:34:47.978Z,5.41
2022-10-20T04:37:14.597Z,5.49
2022-10-20T04:39:41.121Z,5.30
2022-10-20T04:42:07.711Z,5.37
2022-10-20T04:44:34.238Z,5.50
2022-10-20T04:47:00.819Z,5.56
2022-10-20T04:49:27.515Z,5.40
2022-10-20T04:51:58.640Z,5.37
2022-10-20T04:54:27.478Z,5.31
2022-10-20T04:56:54.091Z,5.47
2022-10-20T04:59:20.734Z,5.60
2022-10-20T05:01:47.395Z,5.53
2022-10-20T05:04:14.051Z,5.59
2022-10-20T05:06:40.708Z,5.58
2022-10-20T05:09:07.556Z,5.47
2022-10-20T05:11:36.688Z,5.55
2022-10-20T05:14:03.513Z,5.75
2022-10-20T05:16:30.158Z,5.73
2022-10-20T05:18:58.038Z,5.81
2022-10-20T05:21:27.237Z,5.69
2022-10-20T05:23:58.619Z,5.67
2022-10-20T05:26:26.280Z,5.62
2022-10-20T05:28:53.246Z,5.64
2022-10-20T05:31:22.905Z,5.50
2022-10-20T05:33:51.800Z,5.62
2022-10-20T05:36:21.825Z,5.58
2022-10-20T05:38:49.675Z,5.58
2022-10-20T05:41:18.231Z,5.49
2022-10-20T05:43:49.889Z,5.54
2022-10-20T05:46:17.820Z,5.52
2022-10-20T05:48:44.893Z,5.49
2022-10-20T05:51:14.914Z,5.51
2022-10-20T05:53:42.596Z,5.53
2022-10-20T05:56:12.713Z,5.58
2022-10-20T05:58:39.874Z,5.87
2022-10-20T06:01:17.128Z,5.79
2022-10-20T06:03:58.006Z,6.02
2022-10-20T06:06:27.202Z,5.98
2022-10-20T06:08:54.802Z,5.79
2022-10-20T06:11:22.944Z,5.71
2022-10-20T06:13:52.630Z,5.79
2022-10-20T06:16:22.069Z,5.78
2022-10-20T06:18:49.110Z,5.63
2022-10-20T06:21:18.341Z,5.70
2022-10-20T06:23:45.223Z,5.75
2022-10-20T06:26:14.439Z,5.74
2022-10-20T06:28:41.455Z,5.82
2022-10-20T06:31:21.731Z,5.79
2022-10-20T06:33:49.013Z,5.87
2022-10-20T06:36:16.288Z,5.88
2022-10-20T06:38:43.888Z,6.15
2022-10-20T06:41:12.810Z,6.06
2022-10-20T06:43:39.509Z,6.15
2022-10-20T06:46:08.250Z,6.27
2022-10-20T06:48:35.478Z,6.40
2022-10-20T06:51:04.756Z,6.39
2022-10-20T06:53:31.499Z,6.52
2022-10-20T06:56:12.071Z,6.60
2022-10-20T06:58:40.255Z,6.56
2022-10-20T07:01:11.001Z,6.64
2022-10-20T07:03:38.999Z,6.70
2022-10-20T07:06:06.567Z,6.70
2022-10-20T07:08:34.586Z,6.81
2022-10-20T07:11:07.171Z,6.89
2022-10-20T07:13:34.907Z,6.85
2022-10-20T07:16:01.990Z,6.94
2022-10-20T07:18:29.152Z,7.09
2022-10-20T07:21:00.830Z,7.05
2022-10-20T07:23:28.116Z,7.07
2022-10-20T07:26:02.158Z,7.08
2022-10-20T07:28:29.275Z,7.12
2022-10-20T07:30:55.940Z,7.12
2022-10-20T07:33:22.945Z,7.29
2022-10-20T07:35:50.161Z,7.19
2022-10-20T07:38:16.736Z,7.10
2022-10-20T07:40:43.334Z,7.10
2022-10-20T07:43:10.009Z,7.08
2022-10-20T07:45:36.582Z,7.19
2022-10-20T07:48:04.258Z,7.31
2022-10-20T07:50:30.890Z,7.25
2022-10-20T07:52:57.427Z,7.33
2022-10-20T07:55:38.216Z,7.37
2022-10-20T07:58:05.504Z,7.52
2022-10-20T08:00:32.229Z,7.46
2022-10-20T08:02:58.945Z,7.73
2022-10-20T08:05:27.241Z,7.64
2022-10-20T08:07:53.795Z,7.60
2022-10-20T08:10:20.513Z,7.57
2022-10-20T08:12:47.060Z,7.63
2022-10-20T08:15:13.693Z,7.71
2022-10-20T08:17:40.236Z,7.76
2022-10-20T08:20:18.969Z,7.63
2022-10-20T08:22:46.971Z,7.65
2022-10-20T08:25:17.083Z,7.77
2022-10-20T08:27:43.684Z,7.80
2022-10-20T08:30:23.526Z,7.85
2022-10-20T08:32:53.032Z,7.80
2022-10-20T08:35:20.885Z,7.92
2022-10-20T08:37:47.671Z,7.86
2022-10-20T08:40:21.251Z,7.94
2022-10-20T08:42:48.334Z,8.03
2022-10-20T08:45:17.520Z,8.27
2022-10-20T08:47:44.956Z,8.27
2022-10-20T08:50:15.998Z,8.23
2022-10-20T08:52:44.254Z,8.33
2022-10-20T08:55:38.779Z,8.43
2022-10-20T08:58:20.596Z,8.60
2022-10-20T09:00:47.843Z,8.69
2022-10-20T09:03:14.775Z,8.65
2022-10-20T09:05:43.551Z,8.81
2022-10-20T09:08:10.085Z,9.01
2022-10-20T09:10:38.950Z,9.06
2022-10-20T09:13:17.087Z,8.95
2022-10-20T09:15:43.970Z,9.05
2022-10-20T09:18:12.490Z,9.34
2022-10-20T09:20:53.897Z,9.18
2022-10-20T09:23:41.528Z,9.32
2022-10-20T09:26:37.673Z,9.31
2022-10-20T09:29:13.747Z,9.34
2022-10-20T09:31:48.499Z,9.41
2022-10-20T09:34:32.800Z,9.59
2022-10-20T09:37:08.363Z,9.63
2022-10-20T09:39:43.110Z,9.80
2022-10-20T09:42:19.275Z,9.68
2022-10-20T09:44:52.526Z,9.64
2022-10-20T09:47:20.314Z,9.76
2022-10-20T09:49:47.150Z,9.91
2022-10-20T09:52:17.912Z,9.80
2022-10-20T09:54:48.558Z,9.98
2022-10-20T09:57:19.251Z,9.85
2022-10-20T09:59:47.869Z,9.68
2022-10-20T10:02:14.370Z,9.79
2022-10-20T10:04:49.288Z,10.10
2022-10-20T10:07:24.139Z,10.14
2022-10-20T10:09:57.670Z,10.14
2022-10-20T10:12:25.770Z,10.09
2022-10-20T10:15:07.192Z,10.20
2022-10-20T10:17:41.834Z,10.43
2022-10-20T10:20:11.590Z,10.53
2022-10-20T10:22:39.480Z,10.53
2022-10-20T10:25:09.849Z,10.66
2022-10-20T10:27:37.273Z,10.82
2022-10-20T10:30:19.034Z,10.70
2022-10-20T10:32:47.650Z,10.70
2022-10-20T10:35:25.671Z,11.01
2022-10-20T10:37:53.395Z,10.92
2022-10-20T10:40:24.365Z,11.10
2022-10-20T10:42:57.410Z,11.26
2022-10-20T10:45:43.722Z,11.32
2022-10-20T10:48:31.971Z,11.30
2022-10-20T10:50:59.799Z,11.32
2022-10-20T10:53:50.729Z,11.28
2022-10-20T10:56:17.239Z,11.36
2022-10-20T10:59:06.693Z,11.27
2022-10-20T11:01:52.279Z,11.19
2022-10-20T11:04:43.999Z,11.25
2022-10-20T11:07:16.541Z,11.34
2022-10-20T11:10:13.547Z,11.43
2022-10-20T11:12:55.524Z,11.37
2022-10-20T11:15:45.919Z,11.33
2022-10-20T11:18:21.666Z,11.41
2022-10-20T11:20:57.593Z,11.65
2022-10-20T11:23:39.478Z,11.75
2022-10-20T11:26:30.614Z,11.71
2022-10-20T11:28:58.258Z,11.78
2022-10-20T11:31:25.320Z,11.90
2022-10-20T11:34:13.358Z,12.06
2022-10-20T11:37:00.143Z,12.32
2022-10-20T11:39:59.536Z,12.59
2022-10-20T11:42:35.600Z,12.77
2022-10-20T11:45:09.410Z,12.90
2022-10-20T11:47:41.675Z,12.98
2022-10-20T11:50:11.415Z,13.15
2022-10-20T11:53:10.268Z,13.27
2022-10-20T11:55:43.828Z,13.29
2022-10-20T11:58:55.585Z,13.24
2022-10-20T12:01:37.744Z,13.22
2022-10-20T12:04:22.669Z,13.16
2022-10-20T12:06:49.289Z,13.18
2022-10-20T12:09:43.838Z,13.30
2022-10-20T12:12:33.491Z,13.32
2022-10-20T12:15:01.782Z,13.30
2022-10-20T12:17:35.745Z,13.53
2022-10-20T12:20:20.696Z,13.47
2022-10-20T12:22:50.331Z,13.39
2022-10-20T12:25:26.103Z,13.58
2022-10-20T12:28:20.508Z,13.77
2022-10-20T12:30:59.227Z,14.15
2022-10-20T12:33:41.102Z,13.93
2022-10-20T12:36:15.100Z,14.01
2022-10-20T12:38:43.126Z,13.95
2022-10-20T12:41:13.157Z,14.10
2022-10-20T12:43:54.563Z,14.15
2022-10-20T12:46:31.363Z,14.37
2022-10-20T12:49:03.849Z,14.21
2022-10-20T12:51:52.913Z,14.19
2022-10-20T12:54:39.559Z,14.18
2022-10-20T12:57:31.068Z,14.24
2022-10-20T12:59:57.747Z,14.20
2022-10-20T13:02:24.214Z,14.10
2022-10-20T13:04:59.658Z,13.95
2022-10-20T13:07:52.628Z,13.67
2022-10-20T13:10:33.674Z,13.85
2022-10-20T13:13:03.271Z,13.76
2022-10-20T13:15:38.885Z,13.72
2022-10-20T13:18:11.332Z,13.69
2022-10-20T13:20:43.890Z,13.89
2022-10-20T13:23:15.530Z,13.72
2022-10-20T13:25:47.173Z,13.67
2022-10-20T13:28:13.934Z,13.51
2022-10-20T13:30:52.668Z,13.47
2022-10-20T13:33:58.880Z,13.52
2022-10-20T13:36:40.447Z,13.35
2022-10-20T13:39:37.711Z,13.44
2022-10-20T13:42:42.919Z,13.41
2022-10-20T13:45:21.047Z,13.17
2022-10-20T13:48:07.283Z,13.24
2022-10-20T13:50:39.162Z,13.12
2022-10-20T13:53:22.125Z,13.06
2022-10-20T13:56:18.494Z,13.17
2022-10-20T13:59:05.517Z,13.08
2022-10-20T14:01:35.615Z,13.13
2022-10-20T14:04:02.199Z,13.08
2022-10-20T14:06:35.878Z,12.90
2022-10-20T14:09:16.804Z,12.91
2022-10-20T14:11:45.446Z,12.89
2022-10-20T14:14:18.736Z,12.99
2022-10-20T14:17:06.135Z,12.95
2022-10-20T14:19:36.383Z,12.86
2022-10-20T14:22:15.188Z,12.94
2022-10-20T14:24:50.923Z,12.86
2022-10-20T14:27:20.556Z,12.90
2022-10-20T14:29:49.914Z,12.92
2022-10-20T14:32:19.506Z,12.80
2022-10-20T14:35:03.484Z,12.75
2022-10-20T14:37:35.278Z,12.72
2022-10-20T14:40:20.607Z,12.71
2022-10-20T14:42:50.014Z,12.62
2022-10-20T14:45:23.010Z,12.63
2022-10-20T14:47:50.321Z,12.71
2022-10-20T14:50:43.343Z,12.67
2022-10-20T14:53:22.422Z,12.68
2022-10-20T14:55:49.397Z,12.57
2022-10-20T14:58:39.019Z,12.57
2022-10-20T15:01:25.812Z,12.55
2022-10-20T15:04:14.544Z,12.55
2022-10-20T15:06:41.934Z,12.50
2022-10-20T15:09:28.307Z,12.51
2022-10-20T15:11:54.963Z,12.48
2022-10-20T15:14:21.816Z,12.62
2022-10-20T15:16:49.036Z,12.48
2022-10-20T15:19:28.444Z,12.44
2022-10-20T15:22:23.284Z,12.45
2022-10-20T15:24:53.106Z,12.42
2022-10-20T15:27:19.704Z,12.40
2022-10-20T15:29:51.165Z,12.32
2022-10-20T15:32:18.643Z,12.28
2022-10-20T15:34:45.285Z,12.39
2022-10-20T15:37:11.913Z,12.25
2022-10-20T15:39:38.556Z,12.14
2022-10-20T15:42:12.149Z,12.12
2022-10-20T15:44:38.865Z,12.07
2022-10-20T15:47:05.495Z,11.92
2022-10-20T15:49:32.226Z,11.85
2022-10-20T15:51:58.840Z,11.75
2022-10-20T15:54:25.600Z,11.73
2022-10-20T15:56:52.490Z,11.58
2022-10-20T15:59:22.140Z,11.55
2022-10-20T16:01:48.936Z,11.46
2022-10-20T16:04:26.163Z,11.43
2022-10-20T16:06:57.639Z,11.47
2022-10-20T16:09:25.960Z,11.41
2022-10-20T16:11:52.645Z,11.35
2022-10-20T16:14:19.372Z,11.37
2022-10-20T16:16:46.114Z,11.37
2022-10-20T16:19:12.864Z,11.27
2022-10-20T16:21:39.563Z,11.29
2022-10-20T16:24:06.318Z,11.25
2022-10-20T16:26:32.991Z,11.29
2022-10-20T16:28:59.672Z,11.30
2022-10-20T16:31:29.482Z,11.22
2022-10-20T16:33:59.287Z,11.12
2022-10-20T16:36:26.116Z,11.24
2022-10-20T16:39:00.962Z,11.24
2022-10-20T16:41:27.782Z,11.18
2022-10-20T16:43:56.439Z,11.14
2022-10-20T16:46:35.116Z,11.13
2022-10-20T16:49:01.796Z,11.18
2022-10-20T16:51:28.473Z,11.24
2022-10-20T16:54:03.339Z,11.14
2022-10-20T16:56:30.517Z,11.19
2022-10-20T16:58:57.231Z,11.24
2022-10-20T17:01:24.302Z,11.29
2022-10-20T17:03:52.686Z,11.17
2022-10-20T17:06:21.772Z,11.26
2022-10-20T17:08:48.667Z,11.13
2022-10-20T17:11:26.964Z,11.09
2022-10-20T17:13:54.229Z,11.17
2022-10-20T17:16:26.285Z,11.19
2022-10-20T17:19:03.102Z,11.26
2022-10-20T17:21:31.095Z,11.20
2022-10-20T17:23:58.336Z,11.10
2022-10-20T17:26:26.538Z,11.00
2022-10-20T17:28:58.239Z,11.08
2022-10-20T17:31:24.937Z,11.05
2022-10-20T17:33:51.992Z,11.12
2022-10-20T17:36:24.208Z,11.12
2022-10-20T17:38:53.325Z,11.05
2022-10-20T17:41:20.130Z,10.99
2022-10-20T17:43:46.802Z,11.05
2022-10-20T17:46:18.274Z,11.05
2022-10-20T17:48:48.577Z,11.02
2022-10-20T17:51:20.031Z,11.07
2022-10-20T17:53:55.941Z,11.01
2022-10-20T17:56:27.077Z,11.00
2022-10-20T17:58:56.392Z,11.12
2022-10-20T18:01:26.328Z,11.20
2022-10-20T18:03:56.330Z,11.12
2022-10-20T18:06:31.163Z,11.15
2022-10-20T18:09:02.135Z,11.11
2022-10-20T18:11:33.848Z,11.03
2022-10-20T18:14:01.085Z,11.07
2022-10-20T18:16:30.602Z,11.00
2022-10-20T18:21:31.174Z,11.08
2022-10-20T18:24:02.775Z,10.96
2022-10-20T18:26:31.653Z,10.96
2022-10-20T18:29:01.914Z,11.02
2022-10-20T18:31:30.785Z,11.08
2022-10-20T18:34:04.261Z,11.07
2022-10-20T18:36:33.149Z,11.03
2022-10-20T18:39:00.045Z,10.99
2022-10-20T18:41:31.573Z,11.13
2022-10-20T18:44:10.089Z,11.16
2022-10-20T18:46:36.773Z,11.00
2022-10-20T18:49:05.015Z,11.00
2022-10-20T18:51:32.454Z,10.93
2022-10-20T18:54:00.395Z,11.03
2022-10-20T18:56:28.805Z,10.98
2022-10-20T18:58:59.066Z,11.06
2022-10-20T19:01:29.069Z,10.99
2022-10-20T19:03:57.144Z,11.10
2022-10-20T19:06:53.444Z,11.07
2022-10-20T19:09:21.069Z,11.01
2022-10-20T19:14:20.528Z,10.92
2022-10-20T19:16:48.621Z,10.95
2022-10-20T19:19:15.675Z,11.01
2022-10-20T19:21:42.431Z,10.90
2022-10-20T19:24:13.875Z,10.99
2022-10-20T19:26:43.089Z,10.89
2022-10-20T19:29:12.887Z,10.92
2022-10-20T19:32:00.154Z,10.88
2022-10-20T19:34:38.662Z,10.90
2022-10-20T19:37:05.835Z,10.97
2022-10-20T19:39:35.144Z,10.90
2022-10-20T19:42:02.652Z,10.96
2022-10-20T19:44:38.535Z,10.98
2022-10-20T19:47:08.534Z,10.93
2022-10-20T19:49:36.718Z,10.82
2022-10-20T19:52:04.317Z,10.90
2022-10-20T19:54:31.070Z,11.04
2022-10-20T19:56:57.800Z,10.96
2022-10-20T19:59:24.619Z,10.92
2022-10-20T20:01:54.643Z,10.90
2022-10-20T20:04:21.525Z,10.82
2022-10-20T20:06:48.164Z,10.94
2022-10-20T20:09:15.789Z,10.88
2022-10-20T20:11:42.949Z,10.86
2022-10-20T20:14:18.295Z,10.87
2022-10-20T20:16:46.143Z,10.88
2022-10-20T20:19:13.880Z,10.88
2022-10-20T20:21:40.514Z,11.00
2022-10-20T20:24:07.124Z,10.88
2022-10-20T20:26:36.245Z,10.98
2022-10-20T20:29:03.628Z,10.85
2022-10-20T20:31:30.242Z,10.67
2022-10-20T20:33:57.254Z,10.76
2022-10-20T20:36:27.002Z,10.67
2022-10-20T20:38:57.353Z,10.79
2022-10-20T20:41:26.636Z,10.76
2022-10-20T20:43:53.763Z,10.73
2022-10-20T20:46:22.616Z,10.79
2022-10-20T20:48:50.057Z,10.63
2022-10-20T20:51:18.396Z,10.61
2022-10-20T20:53:50.713Z,10.70
2022-10-20T20:56:20.660Z,10.62
2022-10-20T20:58:49.809Z,10.60
2022-10-20T21:01:34.551Z,10.74
2022-10-20T21:04:04.697Z,10.64
2022-10-20T21:07:00.270Z,10.70
2022-10-20T21:09:18.502Z,10.67
2022-10-20T21:11:45.886Z,10.77
2022-10-20T21:14:12.520Z,10.76
2022-10-20T21:16:39.188Z,10.70
2022-10-20T21:19:09.446Z,10.79
2022-10-20T21:21:47.100Z,10.70
2022-10-20T21:24:13.779Z,10.78
2022-10-20T21:26:40.413Z,10.75
2022-10-20T21:29:06.961Z,10.81
2022-10-20T21:31:33.708Z,10.79
2022-10-20T21:34:03.680Z,10.90
2022-10-20T21:36:32.353Z,10.79
2022-10-20T21:39:02.532Z,10.80
2022-10-20T21:41:32.170Z,10.81
2022-10-20T21:44:00.221Z,10.92
2022-10-20T21:46:30.527Z,11.01
2022-10-20T21:49:06.073Z,10.99
2022-10-20T21:51:41.057Z,10.89
2022-10-20T21:54:12.091Z,10.92
2022-10-20T21:56:41.245Z,11.07
2022-10-20T21:59:09.619Z,10.96
2022-10-20T22:01:36.194Z,11.13
2022-10-20T22:04:02.774Z,11.10
2022-10-20T22:06:29.325Z,11.19
2022-10-20T22:08:57.820Z,11.07
2022-10-20T22:11:34.693Z,11.08
2022-10-20T22:14:01.448Z,11.08
2022-10-20T22:16:30.888Z,11.04
2022-10-20T22:18:59.676Z,11.06
2022-10-20T22:21:27.230Z,11.02
2022-10-20T22:23:55.392Z,11.04
2022-10-20T22:26:23.335Z,11.23
2022-10-20T22:28:50.844Z,11.28
2022-10-20T22:31:18.209Z,11.29
2022-10-20T22:33:44.857Z,11.16
2022-10-20T22:36:11.528Z,11.10
2022-10-20T22:38:38.073Z,11.18
2022-10-20T22:41:04.701Z,11.23
2022-10-20T22:43:31.572Z,11.21
2022-10-20T22:45:58.236Z,11.21
2022-10-20T22:48:25.272Z,11.29
2022-10-20T22:50:51.867Z,11.30
2022-10-20T22:53:18.502Z,11.42
2022-10-20T22:55:45.354Z,11.35
2022-10-20T22:58:12.035Z,11.26
2022-10-20T23:00:39.903Z,11.28
2022-10-20T23:03:06.623Z,11.32
2022-10-20T23:05:33.202Z,11.38
2022-10-20T23:07:59.759Z,11.22
2022-10-20T23:10:26.359Z,11.20
2022-10-20T23:12:56.905Z,11.38
2022-10-20T23:15:23.694Z,11.43
2022-10-20T23:17:50.451Z,11.47
2022-10-20T23:20:17.044Z,11.39
2022-10-20T23:22:43.614Z,11.44
2022-10-20T23:25:10.221Z,11.53
2022-10-20T23:27:37.190Z,11.46
2022-10-20T23:30:04.243Z,11.50
2022-10-20T23:32:30.801Z,11.55
2022-10-20T23:34:57.428Z,11.48
2022-10-20T23:37:24.021Z,11.47
2022-10-20T23:39:50.817Z,11.53
2022-10-20T23:42:17.588Z,11.49
2022-10-20T23:44:44.302Z,11.56
2022-10-20T23:47:10.878Z,11.48
2022-10-20T23:49:37.621Z,11.55
2022-10-20T23:52:04.408Z,11.58
2022-10-20T23:54:31.090Z,11.51
2022-10-20T23:56:57.702Z,11.52
2022-10-20T23:59:26.657Z,11.61
